createdAt,value
2023-04-30T00:01:02.328Z,9.23
2023-04-30T00:03:29.534Z,9.98
2023-04-30T00:05:56.667Z,9.20
2023-04-30T00:08:23.934Z,9.55
2023-04-30T00:10:51.829Z,9.45
2023-04-30T00:13:19.175Z,9.70
2023-04-30T00:15:46.289Z,9.85
2023-04-30T00:18:13.925Z,9.63
2023-04-30T00:20:40.970Z,8.98
2023-04-30T00:23:08.074Z,9.35
2023-04-30T00:25:35.634Z,9.02
2023-04-30T00:28:02.713Z,10.50
2023-04-30T00:30:30.339Z,9.05
2023-04-30T00:32:57.440Z,10.32
2023-04-30T00:35:24.536Z,9.65
2023-04-30T00:37:51.540Z,10.50
2023-04-30T00:40:18.600Z,9.93
2023-04-30T00:42:45.707Z,10.40
2023-04-30T00:45:12.872Z,10.55
2023-04-30T00:47:40.606Z,9.77
2023-04-30T00:50:08.061Z,9.48
2023-04-30T00:52:35.228Z,9.57
2023-04-30T00:55:02.520Z,9.48
2023-04-30T00:57:31.586Z,10.60
2023-04-30T00:59:59.459Z,10.32
2023-04-30T01:02:26.637Z,9.73
2023-04-30T01:04:55.343Z,9.93
2023-04-30T01:07:22.588Z,10.50
2023-04-30T01:09:49.802Z,10.30
2023-04-30T01:12:19.856Z,11.27
2023-04-30T01:15:24.362Z,10.07
2023-04-30T01:18:02.708Z,11.75
2023-04-30T01:20:31.239Z,11.40
2023-04-30T01:23:04.441Z,10.98
2023-04-30T01:25:40.616Z,10.52
2023-04-30T01:28:16.706Z,11.00
2023-04-30T01:30:47.632Z,10.45
2023-04-30T01:33:14.822Z,11.25
2023-04-30T01:36:12.564Z,11.68
2023-04-30T01:39:04.273Z,11.38
2023-04-30T01:41:37.318Z,10.52
2023-04-30T01:44:29.356Z,10.93
2023-04-30T01:47:07.815Z,11.05
2023-04-30T01:49:57.397Z,10.30
2023-04-30T01:52:35.619Z,10.55
2023-04-30T01:55:11.921Z,9.98
2023-04-30T01:57:44.363Z,10.73
2023-04-30T02:00:12.162Z,12.07
2023-04-30T02:02:42.669Z,11.13
2023-04-30T02:05:10.057Z,10.70
2023-04-30T02:07:42.648Z,11.40
2023-04-30T02:10:10.581Z,10.95
2023-04-30T02:12:38.241Z,11.07
2023-04-30T02:15:06.388Z,11.25
2023-04-30T02:17:34.043Z,11.23
2023-04-30T02:20:01.121Z,11.60
2023-04-30T02:22:28.357Z,11.43
2023-04-30T02:24:55.999Z,11.75
2023-04-30T02:27:25.838Z,10.65
2023-04-30T02:29:54.352Z,11.88
2023-04-30T02:32:21.880Z,11.93
2023-04-30T02:34:49.475Z,11.43
2023-04-30T02:37:16.808Z,11.70
2023-04-30T02:39:43.891Z,13.13
2023-04-30T02:42:11.641Z,11.60
2023-04-30T02:44:39.035Z,12.43
2023-04-30T02:47:06.189Z,11.38
2023-04-30T02:49:33.237Z,11.25
2023-04-30T02:52:00.302Z,13.18
2023-04-30T02:54:27.467Z,12.82
2023-04-30T02:56:54.612Z,13.40
2023-04-30T02:59:22.969Z,12.30
2023-04-30T03:01:50.066Z,13.23
2023-04-30T03:04:17.172Z,12.60
2023-04-30T03:06:44.364Z,13.18
2023-04-30T03:09:11.583Z,14.35
2023-04-30T03:11:38.608Z,12.50
2023-04-30T03:14:05.707Z,12.85
2023-04-30T03:16:33.054Z,13.55
2023-04-30T03:19:00.424Z,13.27
2023-04-30T03:21:27.705Z,13.40
2023-04-30T03:23:54.916Z,12.80
2023-04-30T03:26:22.250Z,12.95
2023-04-30T03:28:49.668Z,13.70
2023-04-30T03:31:17.092Z,13.30
2023-04-30T03:33:44.309Z,14.10
2023-04-30T03:36:11.882Z,13.88
2023-04-30T03:38:39.073Z,14.70
2023-04-30T03:41:06.214Z,14.57
2023-04-30T03:43:34.086Z,16.08
2023-04-30T03:46:01.274Z,16.25
2023-04-30T03:48:28.577Z,16.40
2023-04-30T03:50:55.848Z,16.33
2023-04-30T03:53:22.957Z,17.02
2023-04-30T03:55:50.356Z,15.88
2023-04-30T03:58:17.589Z,14.27
2023-04-30T04:00:45.945Z,14.68
2023-04-30T04:03:13.435Z,14.95
2023-04-30T04:05:42.123Z,13.82
2023-04-30T04:08:09.480Z,15.18
2023-04-30T04:10:36.698Z,14.48
2023-04-30T04:13:03.930Z,15.05
2023-04-30T04:15:31.274Z,14.15
2023-04-30T04:17:58.533Z,14.70
2023-04-30T04:20:25.797Z,15.05
2023-04-30T04:22:52.949Z,13.90
2023-04-30T04:25:20.704Z,14.63
2023-04-30T04:27:47.750Z,15.00
2023-04-30T04:30:14.900Z,15.00
2023-04-30T04:32:46.996Z,13.60
2023-04-30T04:35:15.771Z,14.32
2023-04-30T04:37:43.523Z,13.60
2023-04-30T04:40:12.518Z,13.68
2023-04-30T04:42:40.901Z,12.13
2023-04-30T04:45:08.605Z,10.70
2023-04-30T04:47:36.573Z,9.43
2023-04-30T04:50:03.923Z,9.68
2023-04-30T04:52:31.627Z,9.50
2023-04-30T04:54:58.908Z,9.57
2023-04-30T04:57:26.305Z,9.65
2023-04-30T04:59:54.246Z,10.52
2023-04-30T05:02:23.487Z,9.27
2023-04-30T05:04:51.696Z,9.88
2023-04-30T05:07:19.542Z,8.82
2023-04-30T05:09:47.416Z,9.32
2023-04-30T05:12:15.117Z,8.05
2023-04-30T05:14:43.150Z,7.70
2023-04-30T05:17:10.431Z,7.68
2023-04-30T05:19:37.535Z,7.82
2023-04-30T05:22:04.936Z,8.25
2023-04-30T05:24:32.056Z,7.55
2023-04-30T05:26:59.171Z,6.82
2023-04-30T05:29:26.235Z,7.38
2023-04-30T05:31:53.486Z,5.82
2023-04-30T05:34:20.549Z,6.80
2023-04-30T05:36:47.645Z,6.60
2023-04-30T05:39:14.697Z,6.93
2023-04-30T05:41:41.762Z,6.18
2023-04-30T05:44:08.822Z,6.38
2023-04-30T05:46:35.969Z,7.00
2023-04-30T05:49:03.035Z,6.97
2023-04-30T05:51:30.243Z,6.63
2023-04-30T05:53:57.714Z,7.03
2023-04-30T05:56:25.435Z,7.50
2023-04-30T05:58:52.803Z,7.45
2023-04-30T06:01:21.362Z,7.45
2023-04-30T06:03:48.484Z,7.53
2023-04-30T06:06:15.756Z,7.45
2023-04-30T06:08:47.677Z,7.78
2023-04-30T06:11:15.481Z,6.03
2023-04-30T06:13:42.686Z,6.07
2023-04-30T06:16:09.958Z,5.88
2023-04-30T06:18:37.113Z,6.15
2023-04-30T06:21:04.248Z,6.20
2023-04-30T06:23:31.598Z,5.10
2023-04-30T06:25:58.676Z,5.00
2023-04-30T06:28:25.912Z,4.50
2023-04-30T06:30:54.454Z,4.88
2023-04-30T06:33:22.012Z,4.88
2023-04-30T06:35:51.126Z,4.68
2023-04-30T06:38:18.415Z,4.65
2023-04-30T06:40:45.526Z,4.10
2023-04-30T06:43:12.808Z,5.07
2023-04-30T06:45:40.055Z,4.75
2023-04-30T06:48:07.165Z,4.15
2023-04-30T06:50:34.421Z,3.67
2023-04-30T06:53:01.561Z,4.00
2023-04-30T06:55:28.665Z,2.85
2023-04-30T06:57:56.181Z,3.45
2023-04-30T07:00:23.347Z,2.70
2023-04-30T07:02:52.208Z,3.40
2023-04-30T07:05:19.462Z,3.03
2023-04-30T07:07:46.780Z,2.30
2023-04-30T07:10:14.056Z,2.20
2023-04-30T07:12:41.062Z,2.20
2023-04-30T07:15:08.590Z,2.55
2023-04-30T07:17:35.761Z,1.80
2023-04-30T07:20:04.656Z,1.90
2023-04-30T07:24:59.321Z,2.03
2023-04-30T07:27:27.456Z,2.20
2023-04-30T07:29:55.811Z,1.67
2023-04-30T07:32:23.340Z,1.60
2023-04-30T07:34:50.382Z,1.70
2023-04-30T07:37:17.610Z,1.80
2023-04-30T07:39:44.707Z,1.63
2023-04-30T07:42:11.768Z,2.13
2023-04-30T07:44:38.870Z,1.63
2023-04-30T07:47:05.934Z,1.50
2023-04-30T07:49:32.981Z,2.00
2023-04-30T07:52:01.538Z,1.92
2023-04-30T07:54:28.626Z,1.50
2023-04-30T07:59:27.737Z,1.92
2023-04-30T08:01:55.108Z,2.05
2023-04-30T08:04:22.197Z,2.05
2023-04-30T08:06:49.388Z,2.20
2023-04-30T08:09:16.604Z,1.88
2023-04-30T08:11:43.829Z,2.13
2023-04-30T08:14:10.959Z,1.90
2023-04-30T08:16:38.104Z,4.10
2023-04-30T08:19:05.262Z,2.05
2023-04-30T08:21:32.436Z,2.30
2023-04-30T08:23:59.450Z,1.90
2023-04-30T08:26:26.797Z,1.70
2023-04-30T08:28:53.902Z,2.90
2023-04-30T08:31:21.203Z,1.92
2023-04-30T08:33:48.312Z,1.80
2023-04-30T08:36:15.562Z,1.90
2023-04-30T08:38:42.701Z,1.77
2023-04-30T08:41:12.419Z,1.52
2023-04-30T08:43:40.850Z,1.80
2023-04-30T08:46:08.694Z,1.85
2023-04-30T08:48:36.337Z,1.60
2023-04-30T08:51:04.789Z,1.73
2023-04-30T08:53:35.862Z,1.80
2023-04-30T08:56:04.412Z,2.00
2023-04-30T08:58:31.774Z,1.55
2023-04-30T09:01:00.305Z,1.90
2023-04-30T09:03:28.635Z,2.13
2023-04-30T09:05:56.377Z,1.50
2023-04-30T09:08:49.743Z,2.40
2023-04-30T09:11:25.521Z,1.60
2023-04-30T09:14:00.389Z,1.65
2023-04-30T09:16:33.380Z,1.63
2023-04-30T09:19:00.782Z,1.50
2023-04-30T09:21:36.385Z,1.33
2023-04-30T09:24:05.328Z,1.48
2023-04-30T09:26:38.122Z,1.45
2023-04-30T09:29:09.841Z,1.30
2023-04-30T09:31:38.763Z,1.58
2023-04-30T09:34:06.350Z,1.88
2023-04-30T09:36:34.468Z,1.70
2023-04-30T09:39:10.845Z,2.33
2023-04-30T09:41:39.193Z,2.22
2023-04-30T09:44:06.273Z,1.40
2023-04-30T09:46:37.445Z,1.77
2023-04-30T09:49:07.334Z,1.70
2023-04-30T09:51:35.769Z,2.00
2023-04-30T09:54:04.659Z,1.52
2023-04-30T09:56:36.196Z,1.70
2023-04-30T09:59:07.412Z,1.70
2023-04-30T10:01:39.725Z,1.58
2023-04-30T10:04:08.374Z,1.30
2023-04-30T10:06:36.481Z,1.70
2023-04-30T10:09:06.488Z,1.55
2023-04-30T10:11:37.721Z,1.65
2023-04-30T10:14:12.088Z,1.67
2023-04-30T10:17:06.782Z,1.45
2023-04-30T10:19:39.782Z,1.27
2023-04-30T10:22:07.058Z,1.27
2023-04-30T10:24:34.907Z,1.40
2023-04-30T10:27:03.230Z,1.42
2023-04-30T10:29:30.316Z,2.60
2023-04-30T10:31:58.897Z,1.38
2023-04-30T10:34:34.917Z,1.52
2023-04-30T10:37:11.933Z,1.52
2023-04-30T10:39:39.289Z,1.50
2023-04-30T10:42:09.878Z,1.60
2023-04-30T10:44:37.833Z,1.52
2023-04-30T10:47:08.129Z,1.90
2023-04-30T10:49:35.453Z,1.88
2023-04-30T10:52:04.342Z,1.48
2023-04-30T10:54:33.557Z,1.60
2023-04-30T11:00:05.874Z,1.50
2023-04-30T11:02:48.890Z,1.77
2023-04-30T11:05:18.557Z,1.90
2023-04-30T11:07:57.148Z,1.55
2023-04-30T11:10:26.401Z,1.55
2023-04-30T11:15:42.458Z,2.13
2023-04-30T11:18:09.892Z,1.48
2023-04-30T11:20:44.426Z,1.75
2023-04-30T11:23:17.472Z,1.60
2023-04-30T11:25:49.374Z,1.73
2023-04-30T11:28:27.320Z,2.45
2023-04-30T11:31:01.071Z,2.08
2023-04-30T11:33:30.013Z,1.90
2023-04-30T11:35:58.769Z,1.70
2023-04-30T11:38:31.622Z,2.10
2023-04-30T11:40:59.215Z,2.80
2023-04-30T11:43:34.121Z,2.28
2023-04-30T11:46:11.472Z,2.22
2023-04-30T11:48:40.487Z,2.17
2023-04-30T11:51:18.822Z,2.00
2023-04-30T11:53:47.647Z,1.60
2023-04-30T11:56:18.224Z,2.08
2023-04-30T11:58:47.230Z,2.00
2023-04-30T12:01:15.261Z,1.73
2023-04-30T12:03:46.462Z,1.90
2023-04-30T12:06:26.175Z,1.60
2023-04-30T12:08:55.321Z,1.90
2023-04-30T12:11:25.747Z,4.57
2023-04-30T12:13:57.355Z,4.10
2023-04-30T12:16:25.656Z,2.78
2023-04-30T12:18:53.207Z,2.30
2023-04-30T12:21:23.137Z,2.10
2023-04-30T12:23:50.929Z,2.17
2023-04-30T12:26:18.091Z,2.05
2023-04-30T12:28:48.676Z,2.10
2023-04-30T12:31:19.143Z,2.00
2023-04-30T12:33:54.362Z,1.98
2023-04-30T12:36:21.415Z,2.20
2023-04-30T12:38:48.512Z,2.22
2023-04-30T12:41:17.491Z,2.00
2023-04-30T12:43:44.557Z,5.50
2023-04-30T12:46:11.684Z,4.53
2023-04-30T12:48:45.697Z,3.80
2023-04-30T12:51:12.866Z,2.10
2023-04-30T12:53:46.428Z,2.25
2023-04-30T12:56:16.408Z,2.30
2023-04-30T12:58:47.637Z,3.00
2023-04-30T13:01:18.439Z,2.30
2023-04-30T13:03:45.890Z,2.45
2023-04-30T13:06:13.163Z,2.33
2023-04-30T13:08:56.112Z,2.03
2023-04-30T13:11:26.449Z,2.22
2023-04-30T13:13:57.529Z,2.67
2023-04-30T13:16:25.469Z,2.10
2023-04-30T13:18:53.229Z,2.47
2023-04-30T13:21:21.273Z,2.90
2023-04-30T13:23:53.464Z,2.55
2023-04-30T13:26:23.493Z,2.35
2023-04-30T13:28:51.238Z,2.20
2023-04-30T13:31:18.620Z,2.20
2023-04-30T13:33:46.049Z,2.30
2023-04-30T13:36:13.213Z,2.67
2023-04-30T13:38:40.488Z,3.10
2023-04-30T13:41:07.599Z,2.40
2023-04-30T13:43:34.800Z,2.30
2023-04-30T13:46:02.085Z,2.10
2023-04-30T13:48:29.209Z,2.35
2023-04-30T13:50:56.594Z,2.42
2023-04-30T13:53:23.766Z,2.50
2023-04-30T13:55:50.887Z,2.95
2023-04-30T13:58:18.153Z,3.22
2023-04-30T14:00:45.531Z,2.80
2023-04-30T14:03:13.381Z,3.72
2023-04-30T14:05:40.582Z,2.85
2023-04-30T14:08:07.659Z,2.80
2023-04-30T14:10:34.942Z,2.60
2023-04-30T14:13:02.094Z,2.80
2023-04-30T14:15:32.457Z,2.90
2023-04-30T14:18:00.629Z,2.75
2023-04-30T14:20:27.765Z,2.97
2023-04-30T14:22:54.869Z,3.00
2023-04-30T14:25:22.088Z,3.53
2023-04-30T14:27:49.110Z,2.70
2023-04-30T14:30:16.229Z,2.70
2023-04-30T14:32:43.274Z,2.67
2023-04-30T14:35:10.588Z,2.83
2023-04-30T14:37:37.578Z,2.85
2023-04-30T14:40:06.927Z,2.53
2023-04-30T14:45:01.003Z,3.10
2023-04-30T14:47:28.441Z,2.42
2023-04-30T14:49:55.906Z,2.67
2023-04-30T14:52:23.207Z,3.00
2023-04-30T14:54:50.224Z,2.75
2023-04-30T14:57:18.749Z,2.67
2023-04-30T14:59:45.919Z,2.70
2023-04-30T15:02:13.133Z,2.92
2023-04-30T15:04:46.069Z,2.55
2023-04-30T15:07:13.397Z,3.28
2023-04-30T15:09:40.513Z,2.78
2023-04-30T15:12:07.637Z,2.40
2023-04-30T15:14:34.667Z,2.83
2023-04-30T15:17:01.881Z,2.75
2023-04-30T15:19:30.198Z,2.65
2023-04-30T15:21:57.271Z,2.50
2023-04-30T15:24:24.314Z,2.30
2023-04-30T15:26:54.478Z,2.88
2023-04-30T15:29:21.469Z,3.00
2023-04-30T15:31:51.959Z,3.10
2023-04-30T15:34:20.030Z,3.95
2023-04-30T15:36:47.132Z,3.15
2023-04-30T15:39:14.290Z,3.40
2023-04-30T15:41:41.401Z,3.20
2023-04-30T15:44:08.432Z,2.70
2023-04-30T15:46:35.606Z,3.40
2023-04-30T15:49:02.735Z,3.20
2023-04-30T15:51:29.812Z,3.10
2023-04-30T15:53:56.879Z,4.00
2023-04-30T15:56:25.901Z,3.30
2023-04-30T15:58:56.144Z,2.88
2023-04-30T16:01:23.676Z,3.13
2023-04-30T16:03:51.096Z,3.92
2023-04-30T16:06:19.389Z,3.38
2023-04-30T16:08:47.170Z,3.15
2023-04-30T16:11:14.700Z,3.55
2023-04-30T16:13:41.982Z,3.35
2023-04-30T16:16:09.137Z,3.10
2023-04-30T16:18:36.269Z,2.85
2023-04-30T16:21:05.606Z,2.90
2023-04-30T16:23:32.641Z,2.47
2023-04-30T16:25:59.681Z,2.53
2023-04-30T16:28:28.514Z,2.70
2023-04-30T16:30:56.227Z,2.65
2023-04-30T16:33:25.266Z,2.60
2023-04-30T16:35:52.392Z,2.47
2023-04-30T16:38:20.413Z,2.35
2023-04-30T16:40:47.920Z,2.60
2023-04-30T16:43:15.118Z,2.78
2023-04-30T16:45:42.496Z,2.92
2023-04-30T16:48:09.704Z,5.85
2023-04-30T16:50:36.824Z,3.95
2023-04-30T16:53:03.934Z,3.10
2023-04-30T16:55:31.821Z,3.88
2023-04-30T16:57:58.979Z,3.38
2023-04-30T17:00:26.078Z,3.60
2023-04-30T17:02:53.631Z,3.85
2023-04-30T17:05:21.424Z,3.60
2023-04-30T17:07:49.499Z,3.45
2023-04-30T17:10:19.071Z,3.53
2023-04-30T17:12:48.028Z,4.20
2023-04-30T17:15:15.121Z,3.97
2023-04-30T17:17:42.382Z,3.60
2023-04-30T17:20:09.920Z,3.58
2023-04-30T17:22:38.366Z,3.65
2023-04-30T17:25:05.833Z,3.63
2023-04-30T17:27:32.994Z,3.78
2023-04-30T17:30:00.044Z,3.53
2023-04-30T17:32:28.014Z,3.85
2023-04-30T17:34:55.203Z,4.25
2023-04-30T17:37:22.345Z,4.20
2023-04-30T17:39:49.394Z,4.40
2023-04-30T17:42:16.619Z,3.83
2023-04-30T17:44:43.734Z,4.00
2023-04-30T17:47:11.528Z,3.60
2023-04-30T17:49:39.013Z,3.83
2023-04-30T17:52:06.723Z,3.53
2023-04-30T17:54:34.077Z,3.47
2023-04-30T17:57:01.285Z,3.83
2023-04-30T17:59:32.549Z,4.20
2023-04-30T18:01:59.787Z,3.20
2023-04-30T18:04:26.884Z,3.13
2023-04-30T18:06:54.109Z,3.28
2023-04-30T18:09:21.435Z,3.78
2023-04-30T18:11:48.607Z,3.72
2023-04-30T18:14:15.879Z,3.33
2023-04-30T18:16:42.981Z,3.80
2023-04-30T18:19:10.310Z,3.85
2023-04-30T18:21:37.855Z,4.60
2023-04-30T18:24:05.849Z,3.65
2023-04-30T18:26:32.970Z,3.35
2023-04-30T18:29:00.060Z,3.50
2023-04-30T18:31:28.742Z,3.75
2023-04-30T18:33:55.863Z,3.30
2023-04-30T18:36:24.018Z,3.88
2023-04-30T18:38:51.372Z,3.70
2023-04-30T18:41:18.744Z,3.88
2023-04-30T18:43:46.041Z,3.83
2023-04-30T18:46:13.599Z,3.70
2023-04-30T18:48:40.682Z,2.90
2023-04-30T18:51:08.134Z,3.72
2023-04-30T18:53:36.315Z,3.90
2023-04-30T18:56:03.330Z,3.95
2023-04-30T18:58:30.543Z,3.88
2023-04-30T19:00:58.341Z,4.20
2023-04-30T19:03:25.639Z,3.40
2023-04-30T19:05:59.275Z,3.70
2023-04-30T19:08:26.503Z,3.40
2023-04-30T19:10:54.694Z,3.55
2023-04-30T19:13:21.839Z,3.50
2023-04-30T19:15:49.064Z,3.40
2023-04-30T19:18:17.888Z,3.95
2023-04-30T19:21:02.071Z,3.40
2023-04-30T19:23:32.581Z,3.53
2023-04-30T19:26:00.275Z,3.20
2023-04-30T19:28:27.827Z,3.28
2023-04-30T19:30:55.453Z,3.90
2023-04-30T19:33:23.564Z,3.13
2023-04-30T19:35:54.847Z,4.10
2023-04-30T19:38:22.229Z,3.40
2023-04-30T19:40:55.160Z,3.50
2023-04-30T19:43:23.147Z,3.05
2023-04-30T19:45:54.862Z,2.88
2023-04-30T19:48:23.238Z,2.70
2023-04-30T19:50:53.309Z,2.72
2023-04-30T19:53:21.681Z,3.00
2023-04-30T19:55:48.963Z,3.05
2023-04-30T19:58:16.073Z,2.60
2023-04-30T20:00:45.192Z,3.22
2023-04-30T20:03:14.400Z,4.55
2023-04-30T20:05:42.272Z,3.05
2023-04-30T20:08:09.897Z,3.03
2023-04-30T20:10:38.416Z,3.55
2023-04-30T20:13:06.694Z,3.15
2023-04-30T20:15:34.246Z,3.30
2023-04-30T20:18:01.605Z,3.50
2023-04-30T20:20:29.464Z,3.55
2023-04-30T20:22:56.651Z,2.95
2023-04-30T20:25:31.297Z,3.22
2023-04-30T20:27:58.403Z,2.55
2023-04-30T20:30:25.495Z,2.65
2023-04-30T20:32:52.586Z,3.20
2023-04-30T20:35:20.464Z,2.70
2023-04-30T20:37:49.861Z,2.97
2023-04-30T20:42:44.569Z,2.80
2023-04-30T20:45:12.082Z,3.20
2023-04-30T20:47:42.267Z,2.85
2023-04-30T20:50:09.860Z,2.83
2023-04-30T20:52:37.106Z,2.78
2023-04-30T20:55:04.440Z,3.08
2023-04-30T20:57:31.560Z,2.72
2023-04-30T20:59:58.914Z,2.83
2023-04-30T21:02:26.170Z,3.65
2023-04-30T21:04:53.389Z,2.88
2023-04-30T21:07:20.672Z,3.10
2023-04-30T21:09:48.420Z,2.90
2023-04-30T21:12:15.657Z,3.15
2023-04-30T21:14:42.753Z,3.55
2023-04-30T21:17:09.921Z,3.13
2023-04-30T21:19:37.098Z,3.42
2023-04-30T21:22:04.509Z,3.05
2023-04-30T21:24:31.664Z,3.40
2023-04-30T21:27:00.224Z,2.92
2023-04-30T21:29:27.481Z,3.10
2023-04-30T21:31:56.271Z,3.20
2023-04-30T21:34:23.365Z,3.53
2023-04-30T21:36:51.927Z,3.65
2023-04-30T21:39:18.979Z,3.60
2023-04-30T21:41:46.037Z,3.80
2023-04-30T21:44:13.268Z,3.90
2023-04-30T21:46:40.375Z,3.80
2023-04-30T21:49:07.435Z,3.88
2023-04-30T21:51:36.474Z,4.43
2023-04-30T21:54:03.637Z,4.30
2023-04-30T21:56:30.681Z,4.53
2023-04-30T21:58:57.777Z,5.03
2023-04-30T22:01:27.710Z,3.83
2023-04-30T22:03:54.905Z,4.28
2023-04-30T22:06:22.221Z,5.00
2023-04-30T22:08:49.833Z,4.63
2023-04-30T22:11:17.854Z,4.88
2023-04-30T22:13:44.858Z,4.47
2023-04-30T22:16:12.369Z,4.00
2023-04-30T22:18:39.891Z,4.38
2023-04-30T22:21:06.930Z,4.40
2023-04-30T22:23:34.023Z,4.57
2023-04-30T22:26:01.594Z,4.38
2023-04-30T22:28:28.602Z,4.15
2023-04-30T22:30:59.849Z,3.90
2023-04-30T22:33:27.476Z,3.70
2023-04-30T22:35:55.242Z,4.05
2023-04-30T22:38:22.445Z,4.38
2023-04-30T22:40:49.540Z,3.92
2023-04-30T22:43:16.832Z,4.13
2023-04-30T22:45:44.027Z,3.45
2023-04-30T22:48:11.289Z,3.35
2023-04-30T22:50:38.769Z,3.20
2023-04-30T22:53:06.550Z,3.10
2023-04-30T22:55:35.097Z,3.25
2023-04-30T22:58:02.340Z,3.08
2023-04-30T23:00:29.487Z,3.03
2023-04-30T23:02:56.817Z,3.30
2023-04-30T23:05:23.880Z,3.63
2023-04-30T23:07:50.888Z,3.13
2023-04-30T23:10:18.288Z,3.92
2023-04-30T23:12:45.358Z,3.75
2023-04-30T23:15:12.554Z,3.72
2023-04-30T23:17:40.263Z,3.58
2023-04-30T23:20:08.623Z,4.13
2023-04-30T23:22:35.644Z,4.55
2023-04-30T23:25:03.125Z,4.00
2023-04-30T23:27:31.047Z,4.07
2023-04-30T23:29:58.153Z,4.00
2023-04-30T23:32:26.217Z,3.88
2023-04-30T23:34:53.503Z,3.38
2023-04-30T23:37:20.704Z,3.42
2023-04-30T23:39:47.721Z,3.47
2023-04-30T23:42:14.711Z,3.67
2023-04-30T23:44:41.766Z,3.60
2023-04-30T23:47:08.739Z,4.18
2023-04-30T23:49:36.316Z,3.90
2023-04-30T23:52:03.468Z,3.60
2023-04-30T23:54:30.540Z,3.58
2023-04-30T23:56:57.535Z,3.58
2023-04-30T23:59:25.739Z,3.20
